createdAt,value
2019-02-19T00:00:33.332Z,73.73
2019-02-19T00:03:02.772Z,73.66
2019-02-19T00:05:32.195Z,74.02
2019-02-19T00:08:01.631Z,74.45
2019-02-19T00:10:31.064Z,74.44
2019-02-19T00:13:00.507Z,74.92
2019-02-19T00:15:29.930Z,74.84
2019-02-19T00:17:59.379Z,75.06
2019-02-19T00:20:28.800Z,74.78
2019-02-19T00:22:58.507Z,74.39
2019-02-19T00:25:27.934Z,74.57
2019-02-19T00:27:57.405Z,74.84
2019-02-19T00:30:26.796Z,75.19
2019-02-19T00:32:56.240Z,75.19
2019-02-19T00:35:25.663Z,74.89
2019-02-19T00:37:55.112Z,74.64
2019-02-19T00:40:24.531Z,74.34
2019-02-19T00:42:53.972Z,74.08
2019-02-19T00:45:23.401Z,74.59
2019-02-19T00:47:52.841Z,74.43
2019-02-19T00:50:22.269Z,74.98
2019-02-19T00:52:51.718Z,75.25
2019-02-19T00:55:21.151Z,75.45
2019-02-19T00:57:50.593Z,75.70
2019-02-19T01:00:20.021Z,76.05
2019-02-19T01:02:49.458Z,76.05
2019-02-19T01:05:18.884Z,75.77
2019-02-19T01:07:48.592Z,75.20
2019-02-19T01:10:18.026Z,75.48
2019-02-19T01:12:47.458Z,75.57
2019-02-19T01:15:25.040Z,75.83
2019-02-19T01:17:48.043Z,75.92
2019-02-19T01:20:17.534Z,75.81
2019-02-19T01:22:46.979Z,76.27
2019-02-19T01:25:16.416Z,75.88
2019-02-19T01:27:45.850Z,75.76
2019-02-19T01:30:15.345Z,76.14
2019-02-19T01:32:44.785Z,75.84
2019-02-19T01:35:14.217Z,76.11
2019-02-19T01:37:43.640Z,76.28
2019-02-19T01:40:13.076Z,76.25
2019-02-19T01:42:42.507Z,76.46
2019-02-19T01:45:11.942Z,76.23
2019-02-19T01:47:41.374Z,76.39
2019-02-19T01:50:11.255Z,76.42
2019-02-19T01:52:40.690Z,76.57
2019-02-19T01:55:10.196Z,76.41
2019-02-19T01:57:39.629Z,76.29
2019-02-19T02:00:11.480Z,76.46
2019-02-19T02:02:40.913Z,76.49
2019-02-19T02:05:10.348Z,76.82
2019-02-19T02:07:39.769Z,76.70
2019-02-19T02:10:09.277Z,76.83
2019-02-19T02:12:38.708Z,76.38
2019-02-19T02:15:08.888Z,76.51
2019-02-19T02:17:38.312Z,76.56
2019-02-19T02:20:08.492Z,76.21
2019-02-19T02:22:37.915Z,76.24
2019-02-19T02:25:08.122Z,76.03
2019-02-19T02:27:37.556Z,76.31
2019-02-19T02:30:08.525Z,76.17
2019-02-19T02:32:37.959Z,76.47
2019-02-19T02:35:07.396Z,76.56
2019-02-19T02:37:36.828Z,76.61
2019-02-19T02:40:08.275Z,76.63
2019-02-19T02:42:37.707Z,76.73
2019-02-19T02:45:07.209Z,77.08
2019-02-19T02:47:36.639Z,77.12
2019-02-19T02:50:06.419Z,76.99
2019-02-19T02:52:35.845Z,77.19
2019-02-19T02:55:05.931Z,77.15
2019-02-19T02:57:35.362Z,77.08
2019-02-19T03:00:08.187Z,77.12
2019-02-19T03:02:37.620Z,77.48
2019-02-19T03:05:07.330Z,77.51
2019-02-19T03:07:41.109Z,77.61
2019-02-19T03:10:10.549Z,77.47
2019-02-19T03:12:39.970Z,77.33
2019-02-19T03:15:10.110Z,77.73
2019-02-19T03:17:39.546Z,77.73
2019-02-19T03:20:09.153Z,77.68
2019-02-19T03:22:38.583Z,77.55
2019-02-19T03:25:08.018Z,77.38
2019-02-19T03:27:37.438Z,76.91
2019-02-19T03:30:10.310Z,77.07
2019-02-19T03:32:39.835Z,77.09
2019-02-19T03:35:09.254Z,77.20
2019-02-19T03:37:38.673Z,77.29
2019-02-19T03:40:08.851Z,77.88
2019-02-19T03:42:38.352Z,77.74
2019-02-19T03:45:10.102Z,77.93
2019-02-19T03:47:39.525Z,78.18
2019-02-19T03:50:08.968Z,78.11
2019-02-19T03:52:38.395Z,78.31
2019-02-19T03:55:07.901Z,77.88
2019-02-19T03:57:37.471Z,77.48
2019-02-19T04:00:08.818Z,77.54
2019-02-19T04:02:38.252Z,77.49
2019-02-19T04:05:07.764Z,77.74
2019-02-19T04:07:37.191Z,77.68
2019-02-19T04:10:09.072Z,77.70
2019-02-19T04:12:38.500Z,77.99
2019-02-19T04:15:08.690Z,77.79
2019-02-19T04:17:38.118Z,77.65
2019-02-19T04:20:09.289Z,77.33
2019-02-19T04:22:38.713Z,77.27
2019-02-19T04:25:08.287Z,77.21
2019-02-19T04:27:37.725Z,77.17
2019-02-19T04:30:09.474Z,77.43
2019-02-19T04:32:38.899Z,77.53
2019-02-19T04:35:08.477Z,77.90
2019-02-19T04:37:37.911Z,78.07
2019-02-19T04:40:08.893Z,78.14
2019-02-19T04:42:38.317Z,78.06
2019-02-19T04:45:08.114Z,78.37
2019-02-19T04:47:37.598Z,78.63
2019-02-19T04:50:08.878Z,78.75
2019-02-19T04:52:38.313Z,78.69
2019-02-19T04:55:08.593Z,78.65
2019-02-19T04:57:38.018Z,78.38
2019-02-19T05:00:14.905Z,78.47
2019-02-19T05:02:44.336Z,78.52
2019-02-19T05:05:13.844Z,78.29
2019-02-19T05:07:43.268Z,78.29
2019-02-19T05:10:12.701Z,78.11
2019-02-19T05:12:42.137Z,78.67
2019-02-19T05:15:12.334Z,78.57
2019-02-19T05:17:41.770Z,78.30
2019-02-19T05:20:11.341Z,78.39
2019-02-19T05:22:40.770Z,78.29
2019-02-19T05:25:10.265Z,78.23
2019-02-19T05:27:39.709Z,78.24
2019-02-19T05:30:11.786Z,78.15
2019-02-19T05:32:41.216Z,78.36
2019-02-19T05:35:10.717Z,78.04
2019-02-19T05:37:40.150Z,77.96
2019-02-19T05:40:10.924Z,78.13
2019-02-19T05:42:40.363Z,77.45
2019-02-19T05:45:10.996Z,78.03
2019-02-19T05:47:40.442Z,78.18
2019-02-19T05:50:11.103Z,78.06
2019-02-19T05:52:40.549Z,78.14
2019-02-19T05:55:10.156Z,78.16
2019-02-19T05:57:39.593Z,78.12
2019-02-19T06:00:13.950Z,78.12
2019-02-19T06:02:43.382Z,78.13
2019-02-19T06:05:12.797Z,77.96
2019-02-19T06:07:42.234Z,77.82
2019-02-19T06:10:13.302Z,77.66
2019-02-19T06:12:42.736Z,77.10
2019-02-19T06:15:13.617Z,77.22
2019-02-19T06:17:43.046Z,77.53
2019-02-19T06:20:12.481Z,77.72
2019-02-19T06:22:41.919Z,78.23
2019-02-19T06:25:11.362Z,78.47
2019-02-19T06:27:40.796Z,78.52
2019-02-19T06:30:13.504Z,78.51
2019-02-19T06:32:43.128Z,78.44
2019-02-19T06:35:12.608Z,78.13
2019-02-19T06:37:42.057Z,78.16
2019-02-19T06:40:25.077Z,77.85
2019-02-19T06:42:54.526Z,77.75
2019-02-19T06:45:23.941Z,77.50
2019-02-19T06:47:53.385Z,77.37
2019-02-19T06:50:23.140Z,77.61
2019-02-19T06:52:52.584Z,77.48
2019-02-19T06:55:22.013Z,77.58
2019-02-19T06:57:51.459Z,77.50
2019-02-19T07:00:20.884Z,77.42
2019-02-19T07:02:50.098Z,77.14
2019-02-19T07:05:21.155Z,77.03
2019-02-19T07:07:50.591Z,76.86
2019-02-19T07:10:20.025Z,77.01
2019-02-19T07:12:49.465Z,77.42
2019-02-19T07:15:18.894Z,77.39
2019-02-19T07:17:48.327Z,77.40
2019-02-19T07:20:17.752Z,77.46
2019-02-19T07:22:47.202Z,77.11
2019-02-19T07:25:16.628Z,76.77
2019-02-19T07:27:46.071Z,76.02
2019-02-19T07:30:15.499Z,75.53
2019-02-19T07:32:44.941Z,74.90
2019-02-19T07:35:14.371Z,75.01
2019-02-19T07:37:43.808Z,75.35
2019-02-19T07:40:13.242Z,74.77
2019-02-19T07:42:42.682Z,74.89
2019-02-19T07:45:13.748Z,74.43
2019-02-19T07:47:43.193Z,74.95
2019-02-19T07:50:12.991Z,74.61
2019-02-19T07:52:42.433Z,74.74
2019-02-19T07:55:12.416Z,74.47
2019-02-19T07:57:42.925Z,73.86
2019-02-19T08:00:14.007Z,74.43
2019-02-19T08:02:43.575Z,74.23
2019-02-19T08:05:13.004Z,73.78
2019-02-19T08:07:42.470Z,73.93
2019-02-19T08:10:12.941Z,73.37
2019-02-19T08:12:42.385Z,73.62
2019-02-19T08:15:12.677Z,72.81
2019-02-19T08:17:42.129Z,72.90
2019-02-19T08:20:15.707Z,73.09
2019-02-19T08:22:42.807Z,72.27
2019-02-19T08:25:12.236Z,72.63
2019-02-19T08:27:41.672Z,72.17
2019-02-19T08:30:11.342Z,72.31
2019-02-19T08:32:40.759Z,72.17
2019-02-19T08:35:10.202Z,71.71
2019-02-19T08:37:39.653Z,71.03
2019-02-19T08:40:10.649Z,70.92
2019-02-19T08:42:40.068Z,70.46
2019-02-19T08:45:10.645Z,70.53
2019-02-19T08:47:42.737Z,70.92
2019-02-19T08:50:11.252Z,71.09
2019-02-19T08:52:40.688Z,71.80
2019-02-19T08:55:10.162Z,70.46
2019-02-19T08:57:39.555Z,69.86
2019-02-19T09:00:11.834Z,69.73
2019-02-19T09:02:41.305Z,70.33
2019-02-19T09:05:10.753Z,70.39
2019-02-19T09:07:40.188Z,70.02
2019-02-19T09:10:13.906Z,69.85
2019-02-19T09:12:43.347Z,69.82
2019-02-19T09:15:13.270Z,69.52
2019-02-19T09:17:51.334Z,69.89
2019-02-19T09:20:13.875Z,69.41
2019-02-19T09:22:43.302Z,69.12
2019-02-19T09:25:12.748Z,69.45
2019-02-19T09:27:43.350Z,69.22
2019-02-19T09:30:13.831Z,69.34
2019-02-19T09:32:43.264Z,70.27
2019-02-19T09:35:12.721Z,69.24
2019-02-19T09:37:42.149Z,69.56
2019-02-19T09:40:12.267Z,68.75
2019-02-19T09:42:41.715Z,68.42
2019-02-19T09:45:11.595Z,68.43
2019-02-19T09:47:41.041Z,68.31
2019-02-19T09:50:11.509Z,68.01
2019-02-19T09:52:40.953Z,67.87
2019-02-19T09:55:10.394Z,67.55
2019-02-19T09:57:39.817Z,67.59
2019-02-19T10:00:14.729Z,67.71
2019-02-19T10:02:44.188Z,67.58
2019-02-19T10:05:16.564Z,67.25
2019-02-19T10:07:47.939Z,67.38
2019-02-19T10:10:24.115Z,67.32
2019-02-19T10:12:53.562Z,67.49
2019-02-19T10:15:22.990Z,67.23
2019-02-19T10:17:52.448Z,67.26
2019-02-19T10:20:21.888Z,66.86
2019-02-19T10:22:51.327Z,66.71
2019-02-19T10:25:20.775Z,66.93
2019-02-19T10:27:51.546Z,67.21
2019-02-19T10:30:21.515Z,67.11
2019-02-19T10:32:50.946Z,67.25
2019-02-19T10:35:21.061Z,67.26
2019-02-19T10:37:51.822Z,67.23
2019-02-19T10:40:22.187Z,67.23
2019-02-19T10:42:51.629Z,67.09
2019-02-19T10:45:24.568Z,67.07
2019-02-19T10:47:53.999Z,67.29
2019-02-19T10:50:23.444Z,67.11
2019-02-19T10:52:52.865Z,67.40
2019-02-19T10:55:22.302Z,67.49
2019-02-19T10:57:51.735Z,67.28
2019-02-19T11:00:23.330Z,67.04
2019-02-19T11:02:52.759Z,66.96
2019-02-19T11:05:22.572Z,66.87
2019-02-19T11:07:52.009Z,66.41
2019-02-19T11:10:21.781Z,66.24
2019-02-19T11:12:51.212Z,65.90
2019-02-19T11:15:20.650Z,66.12
2019-02-19T11:17:50.083Z,65.88
2019-02-19T11:20:23.383Z,65.93
2019-02-19T11:22:52.812Z,66.09
2019-02-19T11:25:22.249Z,66.04
2019-02-19T11:27:51.687Z,65.99
2019-02-19T11:30:21.204Z,65.95
2019-02-19T11:32:50.632Z,65.89
2019-02-19T11:35:20.077Z,65.68
2019-02-19T11:37:49.505Z,65.33
2019-02-19T11:40:18.958Z,65.13
2019-02-19T11:42:48.377Z,65.24
2019-02-19T11:45:20.119Z,65.06
2019-02-19T11:47:49.586Z,65.11
2019-02-19T11:50:19.013Z,65.22
2019-02-19T11:52:48.457Z,64.93
2019-02-19T11:55:19.900Z,64.85
2019-02-19T11:57:49.338Z,64.83
2019-02-19T12:00:20.416Z,64.66
2019-02-19T12:02:49.858Z,64.43
2019-02-19T12:05:19.766Z,64.02
2019-02-19T12:07:49.974Z,63.88
2019-02-19T12:10:19.407Z,63.63
2019-02-19T12:12:48.858Z,63.01
2019-02-19T12:15:20.058Z,63.14
2019-02-19T12:17:49.502Z,63.13
2019-02-19T12:20:18.959Z,63.16
2019-02-19T12:22:48.407Z,63.16
2019-02-19T12:25:17.840Z,62.76
2019-02-19T12:27:47.280Z,62.58
2019-02-19T12:30:21.512Z,62.47
2019-02-19T12:32:50.956Z,62.50
2019-02-19T12:35:20.386Z,62.31
2019-02-19T12:37:49.830Z,62.58
2019-02-19T12:40:19.266Z,62.74
2019-02-19T12:42:48.717Z,63.00
2019-02-19T12:45:18.147Z,63.29
2019-02-19T12:47:47.590Z,63.25
2019-02-19T12:50:18.739Z,63.47
2019-02-19T12:52:48.187Z,63.06
2019-02-19T12:55:17.620Z,62.99
2019-02-19T12:57:47.056Z,62.96
2019-02-19T13:00:20.333Z,63.16
2019-02-19T13:02:50.048Z,63.13
2019-02-19T13:05:19.480Z,63.26
2019-02-19T13:07:48.924Z,63.50
2019-02-19T13:10:18.358Z,63.61
2019-02-19T13:12:49.142Z,63.53
2019-02-19T13:15:22.895Z,63.50
2019-02-19T13:17:52.339Z,63.73
2019-02-19T13:20:21.782Z,63.60
2019-02-19T13:22:51.227Z,63.50
2019-02-19T13:25:20.663Z,63.61
2019-02-19T13:27:50.112Z,63.48
2019-02-19T13:30:22.224Z,63.66
2019-02-19T13:32:51.664Z,63.82
2019-02-19T13:35:21.106Z,64.22
2019-02-19T13:37:50.537Z,64.44
2019-02-19T13:40:20.810Z,64.36
2019-02-19T13:42:50.589Z,64.74
2019-02-19T13:45:20.029Z,64.97
2019-02-19T13:47:49.478Z,64.97
2019-02-19T13:50:25.455Z,65.21
2019-02-19T13:53:05.078Z,65.34
2019-02-19T13:55:45.351Z,65.46
2019-02-19T13:58:14.788Z,65.71
2019-02-19T14:00:45.869Z,65.80
2019-02-19T14:03:15.323Z,65.99
2019-02-19T14:05:44.771Z,66.15
2019-02-19T14:08:14.973Z,66.16
2019-02-19T14:10:44.630Z,66.14
2019-02-19T14:13:14.089Z,66.14
2019-02-19T14:15:53.960Z,66.28
2019-02-19T14:18:27.452Z,66.41
2019-02-19T14:21:07.733Z,66.32
2019-02-19T14:23:39.056Z,66.17
2019-02-19T14:26:08.264Z,66.02
2019-02-19T14:28:45.163Z,66.43
2019-02-19T14:31:18.632Z,66.11
2019-02-19T14:33:58.558Z,66.25
2019-02-19T14:36:32.044Z,66.02
2019-02-19T14:39:19.288Z,66.26
2019-02-19T14:41:50.356Z,66.32
2019-02-19T14:44:27.186Z,66.36
2019-02-19T14:47:04.173Z,66.36
2019-02-19T14:49:37.464Z,66.41
2019-02-19T14:52:08.050Z,66.39
2019-02-19T14:54:51.992Z,66.28
2019-02-19T14:57:29.247Z,66.51
2019-02-19T15:00:18.538Z,66.87
2019-02-19T15:03:04.571Z,66.97
2019-02-19T15:05:51.942Z,67.16
2019-02-19T15:08:33.161Z,67.06
2019-02-19T15:11:05.040Z,67.22
2019-02-19T15:13:38.783Z,67.35
2019-02-19T15:16:26.171Z,67.14
2019-02-19T15:19:19.125Z,67.18
2019-02-19T15:21:48.843Z,67.24
2019-02-19T15:24:31.599Z,67.30
2019-02-19T15:27:18.642Z,67.40
2019-02-19T15:29:50.542Z,67.27
2019-02-19T15:32:21.623Z,67.06
2019-02-19T15:34:52.724Z,67.04
2019-02-19T15:37:39.836Z,67.22
2019-02-19T15:40:22.921Z,67.15
2019-02-19T15:42:53.981Z,67.24
2019-02-19T15:45:25.198Z,67.49
2019-02-19T15:48:11.227Z,67.49
2019-02-19T15:50:58.781Z,67.21
2019-02-19T15:53:29.903Z,67.46
2019-02-19T15:56:17.611Z,67.79
2019-02-19T15:58:48.228Z,67.83
2019-02-19T16:01:19.317Z,67.81
2019-02-19T16:03:53.188Z,67.83
2019-02-19T16:06:30.138Z,68.03
2019-02-19T16:09:01.200Z,68.09
2019-02-19T16:11:34.970Z,68.04
2019-02-19T16:14:06.030Z,68.03
2019-02-19T16:16:53.412Z,67.94
2019-02-19T16:19:37.664Z,67.83
2019-02-19T16:22:14.218Z,67.82
2019-02-19T16:24:54.320Z,68.03
2019-02-19T16:27:41.500Z,68.12
2019-02-19T16:30:20.279Z,68.13
2019-02-19T16:32:51.357Z,68.10
2019-02-19T16:35:28.198Z,68.22
2019-02-19T16:37:59.280Z,68.43
2019-02-19T16:40:46.628Z,68.43
2019-02-19T16:43:23.562Z,68.53
2019-02-19T16:45:57.312Z,68.41
2019-02-19T16:48:26.573Z,68.48
2019-02-19T16:51:03.162Z,68.59
2019-02-19T16:53:34.233Z,68.65
2019-02-19T16:56:07.741Z,68.62
2019-02-19T16:58:41.265Z,68.52
2019-02-19T17:01:17.776Z,68.74
2019-02-19T17:03:51.245Z,68.40
2019-02-19T17:06:28.088Z,68.56
2019-02-19T17:09:01.566Z,68.48
2019-02-19T17:11:35.097Z,68.65
2019-02-19T17:14:06.235Z,68.70
2019-02-19T17:16:43.134Z,68.83
2019-02-19T17:19:16.891Z,68.79
2019-02-19T17:21:47.966Z,68.80
2019-02-19T17:24:21.685Z,68.83
2019-02-19T17:26:58.607Z,68.88
2019-02-19T17:29:32.109Z,69.02
2019-02-19T17:32:06.073Z,69.09
2019-02-19T17:34:45.860Z,68.98
2019-02-19T17:37:15.087Z,68.98
2019-02-19T17:39:48.824Z,69.14
2019-02-19T17:42:28.695Z,69.13
2019-02-19T17:45:02.469Z,69.24
2019-02-19T17:47:36.280Z,69.30
2019-02-19T17:50:37.949Z,69.44
2019-02-19T17:53:07.841Z,70.76
2019-02-19T17:55:50.869Z,69.45
2019-02-19T17:58:24.495Z,69.90
2019-02-19T18:01:08.520Z,69.54
2019-02-19T18:03:51.247Z,69.69
2019-02-19T18:06:27.875Z,69.30
2019-02-19T18:09:01.841Z,69.51
2019-02-19T18:11:35.597Z,69.73
2019-02-19T18:14:07.479Z,69.46
2019-02-19T18:16:40.959Z,69.49
2019-02-19T18:19:10.404Z,69.36
2019-02-19T18:21:40.065Z,69.50
2019-02-19T18:24:11.158Z,69.83
2019-02-19T18:26:40.592Z,69.95
2019-02-19T18:29:10.039Z,70.61
2019-02-19T18:31:39.476Z,70.09
2019-02-19T18:34:08.916Z,69.80
2019-02-19T18:36:38.347Z,69.69
2019-02-19T18:39:07.869Z,69.17
2019-02-19T18:41:37.304Z,69.44
2019-02-19T18:44:06.750Z,70.45
2019-02-19T18:46:36.174Z,70.15
2019-02-19T18:49:05.623Z,69.66
2019-02-19T18:51:35.052Z,70.01
2019-02-19T18:54:04.567Z,69.73
2019-02-19T18:56:33.999Z,69.91
2019-02-19T18:59:03.450Z,69.87
2019-02-19T19:01:32.874Z,69.62
2019-02-19T19:04:02.318Z,70.19
2019-02-19T19:06:31.771Z,70.49
2019-02-19T19:09:01.202Z,70.32
2019-02-19T19:11:30.626Z,70.94
2019-02-19T19:14:00.071Z,70.90
2019-02-19T19:16:29.509Z,70.81
2019-02-19T19:18:58.988Z,71.09
2019-02-19T19:21:28.391Z,70.48
2019-02-19T19:23:57.840Z,71.44
2019-02-19T19:26:27.285Z,70.68
2019-02-19T19:28:56.726Z,71.27
2019-02-19T19:31:33.196Z,71.52
2019-02-19T19:33:57.329Z,71.86
2019-02-19T19:36:26.759Z,71.97
2019-02-19T19:38:57.557Z,72.47
2019-02-19T19:41:26.999Z,72.61
2019-02-19T19:43:56.438Z,72.58
2019-02-19T19:46:25.874Z,72.64
2019-02-19T19:48:55.318Z,72.75
2019-02-19T19:51:25.469Z,72.57
2019-02-19T19:53:54.915Z,72.53
2019-02-19T19:56:24.349Z,72.49
2019-02-19T19:58:53.795Z,72.57
2019-02-19T20:01:23.234Z,72.40
2019-02-19T20:03:52.681Z,72.69
2019-02-19T20:06:22.110Z,72.95
2019-02-19T20:08:51.562Z,72.91
2019-02-19T20:11:21.000Z,73.04
2019-02-19T20:13:50.439Z,73.20
2019-02-19T20:16:19.875Z,73.41
2019-02-19T20:18:49.332Z,73.69
2019-02-19T20:21:26.440Z,73.85
2019-02-19T20:23:50.171Z,74.01
2019-02-19T20:26:19.628Z,73.79
2019-02-19T20:28:49.055Z,74.16
2019-02-19T20:31:18.503Z,74.06
2019-02-19T20:33:47.925Z,74.34
2019-02-19T20:36:17.366Z,74.48
2019-02-19T20:38:46.802Z,74.37
2019-02-19T20:41:16.246Z,74.75
2019-02-19T20:43:45.675Z,75.43
2019-02-19T20:46:15.109Z,76.28
2019-02-19T20:48:44.541Z,76.44
2019-02-19T20:51:13.978Z,77.40
2019-02-19T20:53:43.408Z,76.75
2019-02-19T20:56:12.838Z,77.88
2019-02-19T20:58:42.272Z,77.44
2019-02-19T21:01:11.777Z,77.69
2019-02-19T21:03:41.208Z,77.79
2019-02-19T21:06:10.658Z,77.57
2019-02-19T21:08:40.076Z,77.75
2019-02-19T21:11:09.515Z,77.69
2019-02-19T21:13:39.017Z,78.32
2019-02-19T21:16:08.452Z,78.78
2019-02-19T21:18:37.873Z,78.95
2019-02-19T21:21:07.308Z,78.73
2019-02-19T21:23:36.745Z,78.76
2019-02-19T21:26:06.183Z,78.38
2019-02-19T21:28:35.607Z,77.93
2019-02-19T21:31:05.042Z,77.52
2019-02-19T21:33:34.467Z,77.99
2019-02-19T21:36:03.913Z,77.88
2019-02-19T21:38:33.344Z,77.95
2019-02-19T21:41:02.787Z,78.09
2019-02-19T21:43:32.220Z,78.06
2019-02-19T21:46:01.650Z,77.23
2019-02-19T21:48:31.102Z,77.30
2019-02-19T21:51:00.768Z,77.89
2019-02-19T21:53:30.212Z,77.94
2019-02-19T21:55:59.634Z,78.13
2019-02-19T21:58:29.075Z,78.38
2019-02-19T22:00:58.509Z,78.37
2019-02-19T22:03:27.996Z,79.04
2019-02-19T22:05:57.440Z,79.21
2019-02-19T22:08:26.875Z,79.55
2019-02-19T22:10:56.308Z,79.47
2019-02-19T22:13:25.744Z,79.58
2019-02-19T22:15:55.166Z,79.90
2019-02-19T22:18:24.606Z,80.58
2019-02-19T22:20:55.678Z,80.71
2019-02-19T22:23:25.120Z,80.66
2019-02-19T22:25:54.553Z,80.44
2019-02-19T22:28:23.983Z,80.65
2019-02-19T22:30:53.424Z,80.68
2019-02-19T22:33:22.866Z,80.82
2019-02-19T22:35:52.293Z,81.08
2019-02-19T22:38:21.740Z,81.22
2019-02-19T22:40:55.180Z,82.36
2019-02-19T22:43:22.329Z,82.23
2019-02-19T22:45:51.757Z,82.46
2019-02-19T22:48:21.198Z,81.94
2019-02-19T22:50:50.623Z,82.44
2019-02-19T22:53:33.691Z,81.95
2019-02-19T22:56:04.762Z,81.54
2019-02-19T22:58:34.196Z,81.56
2019-02-19T23:01:11.882Z,81.10
2019-02-19T23:03:41.316Z,81.36
2019-02-19T23:06:10.809Z,80.82
2019-02-19T23:08:40.242Z,80.38
2019-02-19T23:11:09.663Z,80.50
2019-02-19T23:13:39.100Z,80.47
2019-02-19T23:16:08.524Z,80.51
2019-02-19T23:18:37.960Z,80.99
2019-02-19T23:21:07.394Z,80.50
2019-02-19T23:23:36.834Z,80.51
2019-02-19T23:26:06.269Z,80.83
2019-02-19T23:28:35.717Z,80.82
2019-02-19T23:31:05.151Z,81.19
2019-02-19T23:33:34.589Z,80.96
2019-02-19T23:36:05.667Z,81.14
2019-02-19T23:38:35.109Z,80.64
2019-02-19T23:41:04.535Z,80.99
2019-02-19T23:43:33.975Z,80.64
2019-02-19T23:46:03.410Z,80.43
2019-02-19T23:48:32.849Z,80.22
2019-02-19T23:51:02.282Z,80.61
2019-02-19T23:53:31.721Z,81.03
2019-02-19T23:56:02.921Z,81.56
2019-02-19T23:58:32.363Z,81.51
